Time;durP1;ratioP1;P1;durP2;ratioP2;P2;SDS_P1;SDS_P2;PMS_P1;PMS_P2;Temp;Humidity;BMP_temperature;BMP_pressure;BME280_temperature;BME280_humidity;BME280_pressure;Samples;Min_cycle;Max_cycle;Signal;HPM_P1;HPM_P2
2022/01/09 00:01:28;;;;;;;1.42;0.82;;;5.70;99.90;;;;;;5090841;28;20028;-82
2022/01/09 00:03:54;;;;;;;0.75;0.65;;;5.70;99.90;;;;;;5109083;28;20032;-83
2022/01/09 00:06:20;;;;;;;1.95;0.77;;;5.80;99.90;;;;;;5087464;28;20034;-78
2022/01/09 00:08:45;;;;;;;0.98;0.80;;;5.80;99.90;;;;;;5088602;28;20506;-79
2022/01/09 00:11:12;;;;;;;1.55;0.90;;;5.80;99.90;;;;;;5091495;28;20032;-78
2022/01/09 00:13:38;;;;;;;1.27;1.05;;;5.60;99.90;;;;;;5087731;28;20016;-82
2022/01/09 00:16:04;;;;;;;1.95;0.60;;;6.00;99.90;;;;;;5097246;28;20659;-78
2022/01/09 00:18:33;;;;;;;0.90;0.70;;;5.90;99.90;;;;;;5105531;28;20054;-81
2022/01/09 00:21:05;;;;;;;1.17;0.68;;;5.90;99.90;;;;;;5102368;28;20034;-79
2022/01/09 00:23:32;;;;;;;1.77;0.95;;;5.90;99.90;;;;;;5092528;28;20043;-82
2022/01/09 00:25:59;;;;;;;0.68;0.50;;;;;;;;;;5091717;28;20047;-80
2022/01/09 00:28:25;;;;;;;1.60;0.60;;;6.00;99.90;;;;;;5091480;28;20028;-81
2022/01/09 00:30:50;;;;;;;1.85;0.77;;;6.00;99.90;;;;;;5090845;28;20079;-79
2022/01/09 00:33:16;;;;;;;1.40;0.60;;;6.10;99.90;;;;;;5086507;28;20058;-78
2022/01/09 00:35:41;;;;;;;0.43;0.30;;;6.00;99.90;;;;;;5095471;28;20031;-79
2022/01/09 00:38:07;;;;;;;1.02;0.80;;;5.80;99.90;;;;;;5091848;28;20024;-80
2022/01/09 00:40:33;;;;;;;1.23;0.63;;;5.70;99.90;;;;;;5089029;28;20118;-80
2022/01/09 00:42:58;;;;;;;0.63;0.60;;;5.70;99.90;;;;;;5088571;28;20066;-80
2022/01/09 00:45:27;;;;;;;0.70;0.50;;;5.70;99.90;;;;;;5100528;28;20404;-79
2022/01/09 00:47:52;;;;;;;0.82;0.45;;;5.80;99.90;;;;;;5103254;27;20057;-81
2022/01/09 00:50:18;;;;;;;5.75;0.80;;;5.80;99.90;;;;;;5087884;28;20125;-80
2022/01/09 00:52:44;;;;;;;1.30;0.50;;;5.90;99.90;;;;;;5105135;28;20047;-82
2022/01/09 00:55:10;;;;;;;0.88;0.45;;;7.60;99.90;;;;;;5105190;28;20027;-80
2022/01/09 00:57:36;;;;;;;3.38;0.70;;;5.90;99.90;;;;;;5088585;28;20055;-78
2022/01/09 01:00:03;;;;;;;1.13;0.55;;;5.80;99.90;;;;;;5104364;28;20119;-83
2022/01/09 01:02:29;;;;;;;0.98;0.40;;;5.80;99.90;;;;;;5104622;28;20136;-80
2022/01/09 01:04:54;;;;;;;1.08;0.60;;;5.80;99.90;;;;;;5086941;28;20485;-79
2022/01/09 01:07:20;;;;;;;2.67;0.63;;;5.70;99.90;;;;;;5091060;28;20062;-79
2022/01/09 01:09:46;;;;;;;2.92;0.90;;;5.70;99.90;;;;;;5101926;28;20481;-81
2022/01/09 01:12:12;;;;;;;3.78;1.00;;;5.80;99.90;;;;;;5086229;28;20032;-79
2022/01/09 01:14:37;;;;;;;2.45;1.13;;;6.50;99.90;;;;;;5087360;28;20028;-83
2022/01/09 01:17:04;;;;;;;1.73;0.73;;;5.70;99.90;;;;;;5104599;28;20035;-79
2022/01/09 01:19:29;;;;;;;1.92;0.70;;;5.80;99.90;;;;;;5088386;28;20397;-81
2022/01/09 01:21:56;;;;;;;1.92;0.70;;;5.70;99.90;;;;;;5090851;28;20033;-79
2022/01/09 01:24:22;;;;;;;2.17;0.80;;;6.80;99.90;;;;;;5090508;28;20052;-80
2022/01/09 01:26:48;;;;;;;2.97;1.05;;;5.70;99.90;;;;;;5089101;28;20027;-78
2022/01/09 01:29:14;;;;;;;3.25;1.20;;;5.70;99.90;;;;;;5090199;28;20027;-80
2022/01/09 01:31:40;;;;;;;6.35;1.23;;;5.80;99.90;;;;;;5102935;28;20578;-78
2022/01/09 01:34:05;;;;;;;2.78;0.80;;;5.80;99.90;;;;;;5087526;28;20031;-83
2022/01/09 01:36:31;;;;;;;3.83;1.00;;;5.80;99.90;;;;;;5089379;28;20032;-82
2022/01/09 01:38:56;;;;;;;2.25;1.58;;;5.90;99.90;;;;;;5085081;28;20448;-80
2022/01/09 01:41:22;;;;;;;4.85;1.00;;;5.80;99.90;;;;;;5086644;28;20046;-81
2022/01/09 01:43:48;;;;;;;3.60;1.00;;;5.80;99.90;;;;;;5087458;28;20028;-81
2022/01/09 01:46:13;;;;;;;2.38;0.77;;;5.90;99.90;;;;;;5101858;28;20020;-79
2022/01/09 01:48:39;;;;;;;3.35;1.00;;;5.90;99.90;;;;;;5102005;28;20093;-80
2022/01/09 01:51:05;;;;;;;3.10;0.75;;;6.00;99.90;;;;;;5105466;28;20112;-78
2022/01/09 01:53:30;;;;;;;2.85;0.70;;;6.00;99.90;;;;;;5103479;28;20128;-82
2022/01/09 01:55:57;;;;;;;2.45;1.20;;;6.10;99.90;;;;;;5087450;28;20034;-78
2022/01/09 01:58:26;;;;;;;2.03;0.82;;;6.10;99.90;;;;;;5082000;28;20051;-78
2022/01/09 02:00:52;;;;;;;1.80;0.82;;;6.20;99.90;;;;;;5089581;28;20110;-80
2022/01/09 02:03:18;;;;;;;2.22;0.85;;;6.10;99.90;;;;;;5088691;28;20074;-79
2022/01/09 02:05:45;;;;;;;0.90;0.52;;;6.20;99.90;;;;;;5085298;28;20047;-81
2022/01/09 02:08:11;;;;;;;1.42;0.47;;;6.30;99.90;;;;;;5087102;28;20030;-80
2022/01/09 02:10:42;;;;;;;0.88;0.60;;;7.90;99.90;;;;;;5101500;28;20020;-78
2022/01/09 02:13:08;;;;;;;1.95;0.50;;;6.40;99.90;;;;;;5100262;28;20107;-80
2022/01/09 02:15:46;;;;;;;1.70;0.47;;;6.30;99.90;;;;;;5104866;28;20055;-80
2022/01/09 02:18:20;;;;;;;0.68;0.50;;;9.40;99.90;;;;;;5085824;28;20069;-80
2022/01/09 02:20:48;;;;;;;0.77;0.40;;;6.30;99.90;;;;;;5087890;28;20055;-80
2022/01/09 02:23:15;;;;;;;0.57;0.40;;;6.30;99.90;;;;;;5097584;28;20020;-81
2022/01/09 02:25:43;;;;;;;0.40;0.40;;;6.10;99.90;;;;;;5103591;28;20050;-80
2022/01/09 02:28:11;;;;;;;1.48;0.60;;;6.20;99.90;;;;;;5103095;28;20051;-81
2022/01/09 02:30:38;;;;;;;1.20;0.47;;;6.20;99.90;;;;;;5088033;28;20024;-79
2022/01/09 02:33:06;;;;;;;0.25;0.20;;;6.40;99.90;;;;;;5109124;28;20053;-79
2022/01/09 02:35:33;;;;;;;0.60;0.40;;;6.20;99.90;;;;;;5094028;28;20027;-80
2022/01/09 02:38:00;;;;;;;1.73;0.77;;;6.10;99.90;;;;;;5089280;28;20058;-80
2022/01/09 02:40:26;;;;;;;1.48;0.73;;;6.10;99.90;;;;;;5102868;27;20043;-79
2022/01/09 02:42:53;;;;;;;0.95;0.50;;;6.10;99.90;;;;;;5106113;28;20396;-80
2022/01/09 02:45:22;;;;;;;0.60;0.40;;;6.00;99.90;;;;;;5104565;28;20053;-82
2022/01/09 02:47:51;;;;;;;1.40;0.45;;;7.50;99.90;;;;;;5089230;28;20043;-81
2022/01/09 02:52:53;;;;;;;1.30;0.60;;;6.10;99.90;;;;;;5100398;28;20020;-82
2022/01/09 02:55:21;;;;;;;1.27;0.70;;;6.10;99.90;;;;;;5089400;28;20450;-79
2022/01/09 02:57:58;;;;;;;0.65;0.45;;;5.90;99.90;;;;;;5090258;28;20023;-78
2022/01/09 03:00:30;;;;;;;1.67;0.63;;;5.90;99.90;;;;;;5086919;28;20031;-81
2022/01/09 03:02:56;;;;;;;2.85;1.00;;;5.80;99.90;;;;;;5102949;28;20072;-83
2022/01/09 03:05:23;;;;;;;2.65;1.25;;;7.40;99.90;;;;;;5088466;28;20015;-83
2022/01/09 03:07:49;;;;;;;0.70;0.60;;;5.70;99.90;;;;;;5089834;28;20023;-83
2022/01/09 03:10:17;;;;;;;1.38;0.65;;;7.50;99.90;;;;;;5089828;27;20601;-83
2022/01/09 03:12:44;;;;;;;0.75;0.52;;;5.60;99.90;;;;;;5098798;27;20028;-81
2022/01/09 03:15:10;;;;;;;1.25;0.60;;;5.60;99.90;;;;;;5090018;28;20035;-82
2022/01/09 03:17:37;;;;;;;0.30;0.30;;;5.50;99.90;;;;;;5089481;28;20035;-79
2022/01/09 03:20:05;;;;;;;1.35;0.68;;;5.60;99.90;;;;;;5107881;28;20058;-80
2022/01/09 03:22:31;;;;;;;2.10;0.70;;;5.50;99.90;;;;;;5083382;28;20032;-81
2022/01/09 03:24:56;;;;;;;1.38;0.50;;;5.50;99.90;;;;;;5090717;28;20035;-83
2022/01/09 03:27:22;;;;;;;2.22;0.60;;;5.40;99.90;;;;;;5090510;28;20590;-81
2022/01/09 03:29:48;;;;;;;1.17;0.70;;;;;;;;;;5103584;28;20065;-79
2022/01/09 03:32:13;;;;;;;2.63;0.70;;;5.20;99.90;;;;;;5100864;28;20114;-80
2022/01/09 03:34:39;;;;;;;2.30;0.55;;;;;;;;;;5089729;28;20636;-81
2022/01/09 03:37:05;;;;;;;0.70;0.40;;;5.30;99.90;;;;;;5087064;28;20032;-83
2022/01/09 03:39:31;;;;;;;1.45;0.50;;;5.20;99.90;;;;;;5106140;28;20036;-83
2022/01/09 03:41:58;;;;;;;1.27;0.40;;;5.20;99.90;;;;;;5106155;28;20049;-79
2022/01/09 03:44:25;;;;;;;1.67;0.50;;;;;;;;;;5084007;28;20488;-79
2022/01/09 03:46:50;;;;;;;1.30;0.63;;;5.20;99.90;;;;;;5085409;28;20024;-80
2022/01/09 03:49:16;;;;;;;1.25;0.60;;;5.20;99.90;;;;;;5084395;28;20028;-81
2022/01/09 03:51:44;;;;;;;1.33;0.60;;;5.20;99.90;;;;;;5092228;28;20036;-82
2022/01/09 03:54:10;;;;;;;1.52;0.80;;;5.10;99.90;;;;;;5104176;28;20032;-80
2022/01/09 03:56:36;;;;;;;1.58;0.80;;;;;;;;;;5103663;28;20085;-81
2022/01/09 03:59:02;;;;;;;2.00;0.90;;;5.30;99.90;;;;;;5090020;28;20036;-82
2022/01/09 04:01:28;;;;;;;1.98;0.93;;;5.30;99.90;;;;;;5088092;28;20547;-80
2022/01/09 04:03:54;;;;;;;3.25;0.73;;;5.40;99.90;;;;;;5109418;28;20046;-82
2022/01/09 04:06:20;;;;;;;2.60;0.60;;;5.10;99.90;;;;;;5088988;28;20118;-83
2022/01/09 04:08:47;;;;;;;3.53;1.35;;;;;;;;;;5087812;28;20028;-80
2022/01/09 04:11:18;;;;;;;1.98;0.73;;;5.40;99.90;;;;;;5088533;28;20043;-80
2022/01/09 04:13:44;;;;;;;;;;;5.40;99.90;;;;;;5093818;28;20035;-82
2022/01/09 04:16:09;;;;;;;1.48;0.70;;;5.50;99.90;;;;;;5088648;28;19908;-80
2022/01/09 04:18:35;;;;;;;1.17;0.75;;;7.20;99.90;;;;;;5094922;28;20027;-82
2022/01/09 04:21:01;;;;;;;1.30;0.63;;;5.50;99.90;;;;;;5091927;28;20088;-79
2022/01/09 04:23:26;;;;;;;2.28;1.15;;;5.50;99.90;;;;;;5087678;28;20111;-79
2022/01/09 04:25:52;;;;;;;1.45;0.70;;;5.50;99.90;;;;;;5104933;28;20023;-81
2022/01/09 04:28:18;;;;;;;1.60;0.73;;;5.60;99.90;;;;;;5087544;28;20020;-81
2022/01/09 04:30:44;;;;;;;3.30;0.95;;;5.60;99.90;;;;;;5106516;27;20510;-82
2022/01/09 04:33:10;;;;;;;1.83;0.60;;;5.60;99.90;;;;;;5088911;28;20024;-80
2022/01/09 04:35:37;;;;;;;2.85;0.80;;;5.60;99.90;;;;;;5089344;28;20116;-80
2022/01/09 04:38:03;;;;;;;3.90;0.93;;;5.60;99.90;;;;;;5091074;28;21594;-83
2022/01/09 04:40:29;;;;;;;3.00;1.17;;;;;;;;;;5081946;28;20218;-81
2022/01/09 04:42:58;;;;;;;4.38;0.88;;;5.60;99.90;;;;;;5088581;28;20027;-80
2022/01/09 04:45:26;;;;;;;4.38;1.05;;;5.50;99.90;;;;;;5104538;28;20016;-80
2022/01/09 04:47:53;;;;;;;2.33;0.88;;;5.60;99.90;;;;;;5084136;28;20024;-83
2022/01/09 04:50:28;;;;;;;2.47;0.98;;;5.70;99.90;;;;;;5107273;27;20053;-81
2022/01/09 04:53:04;;;;;;;2.25;0.82;;;5.70;99.90;;;;;;5091128;28;20148;-82
2022/01/09 04:55:30;;;;;;;5.22;1.10;;;5.70;99.90;;;;;;5090384;28;20142;-82
2022/01/09 04:57:56;;;;;;;2.92;1.08;;;5.70;99.90;;;;;;5093779;28;20520;-82
2022/01/09 05:00:22;;;;;;;3.78;1.23;;;5.70;99.90;;;;;;5093405;28;20027;-81
2022/01/09 05:02:48;;;;;;;5.55;1.05;;;6.30;99.90;;;;;;5087846;28;20373;-83
2022/01/09 05:05:15;;;;;;;5.93;1.40;;;5.60;99.90;;;;;;5104060;27;20115;-82
2022/01/09 05:07:41;;;;;;;4.05;1.23;;;5.50;99.90;;;;;;5085552;28;20064;-81
2022/01/09 05:10:08;;;;;;;6.32;1.50;;;5.60;99.90;;;;;;5091684;28;20439;-82
2022/01/09 05:12:34;;;;;;;6.45;2.03;;;5.60;99.90;;;;;;5086972;28;20024;-81
2022/01/09 05:15:00;;;;;;;7.80;2.30;;;5.60;99.90;;;;;;5096085;28;20039;-82
2022/01/09 05:17:27;;;;;;;6.15;1.60;;;6.40;99.90;;;;;;5088481;28;20020;-82
2022/01/09 05:19:57;;;;;;;7.78;1.52;;;5.70;99.90;;;;;;5086647;28;20481;-79
2022/01/09 05:22:26;;;;;;;5.43;1.30;;;5.60;99.90;;;;;;5088807;28;20031;-79
2022/01/09 05:24:52;;;;;;;11.55;2.45;;;5.60;99.90;;;;;;5091528;28;20115;-79
2022/01/09 05:27:18;;;;;;;8.93;1.80;;;5.70;99.90;;;;;;5106726;28;20019;-82
2022/01/09 05:29:44;;;;;;;7.82;1.70;;;5.70;99.90;;;;;;5088805;28;20049;-82
2022/01/09 05:32:10;;;;;;;9.77;1.58;;;5.60;99.90;;;;;;5104960;28;20027;-82
2022/01/09 05:34:35;;;;;;;10.30;1.65;;;5.60;99.90;;;;;;5091041;28;20527;-85
2022/01/09 05:37:01;;;;;;;7.88;1.33;;;7.30;99.90;;;;;;5102623;27;20433;-80
2022/01/09 05:39:27;;;;;;;8.85;1.60;;;5.70;99.90;;;;;;5085673;28;20035;-80
2022/01/09 05:41:52;;;;;;;7.68;1.35;;;5.70;99.90;;;;;;5090077;28;20434;-80
2022/01/09 05:44:19;;;;;;;6.35;1.30;;;5.70;99.90;;;;;;5092909;28;20106;-84
2022/01/09 05:46:45;;;;;;;8.25;1.50;;;5.70;99.90;;;;;;5087832;28;20076;-79
2022/01/09 05:49:11;;;;;;;5.35;1.63;;;5.60;99.90;;;;;;5086945;28;20127;-80
2022/01/09 05:51:36;;;;;;;4.13;1.35;;;5.60;99.90;;;;;;5091221;28;20111;-80
2022/01/09 05:54:02;;;;;;;4.60;1.17;;;;;;;;;;5084137;28;20089;-81
2022/01/09 05:56:28;;;;;;;4.90;1.30;;;5.70;99.90;;;;;;5087380;28;20085;-82
2022/01/09 05:58:53;;;;;;;9.27;1.38;;;5.70;99.90;;;;;;5091381;28;20031;-79
2022/01/09 06:01:19;;;;;;;6.40;1.60;;;5.70;99.90;;;;;;5103793;28;20049;-79
2022/01/09 06:03:45;;;;;;;5.22;1.40;;;5.60;99.90;;;;;;5084840;28;20080;-80
2022/01/09 06:06:10;;;;;;;13.60;1.75;;;5.60;99.90;;;;;;5095121;28;20497;-80
2022/01/09 06:08:36;;;;;;;10.27;1.65;;;5.50;99.90;;;;;;5090061;28;20043;-82
2022/01/09 06:11:02;;;;;;;3.90;1.92;;;;;;;;;;5093634;28;20024;-80
2022/01/09 06:13:27;;;;;;;10.18;1.80;;;5.40;99.90;;;;;;5107829;28;21144;-79
2022/01/09 06:15:53;;;;;;;6.82;1.35;;;5.40;99.90;;;;;;5096958;28;20031;-80
2022/01/09 06:18:20;;;;;;;7.43;1.67;;;5.30;99.90;;;;;;5092929;28;20103;-80
2022/01/09 06:20:52;;;;;;;7.00;1.33;;;5.30;99.90;;;;;;5105842;28;20023;-80
2022/01/09 06:23:20;;;;;;;4.72;1.48;;;5.30;99.90;;;;;;5106695;28;20087;-78
2022/01/09 06:25:47;;;;;;;13.50;1.90;;;5.30;99.90;;;;;;5094093;28;20036;-80
2022/01/09 06:28:14;;;;;;;8.45;1.58;;;5.40;99.90;;;;;;5102973;28;20019;-80
2022/01/09 06:30:41;;;;;;;8.27;1.77;;;5.40;99.90;;;;;;5109345;28;20016;-80
2022/01/09 06:33:06;;;;;;;10.25;1.73;;;5.40;99.90;;;;;;5102754;28;20048;-81
2022/01/09 06:35:32;;;;;;;6.63;1.88;;;5.40;99.90;;;;;;5107085;27;20024;-82
2022/01/09 06:37:58;;;;;;;14.20;2.50;;;5.20;99.90;;;;;;5106151;28;20020;-81
2022/01/09 06:40:24;;;;;;;9.15;1.75;;;;;;;;;;5093565;28;20507;-80
2022/01/09 06:42:50;;;;;;;10.93;1.88;;;5.30;99.90;;;;;;5087094;28;20109;-80
2022/01/09 06:45:16;;;;;;;9.90;1.80;;;;;;;;;;5093174;28;20028;-79
2022/01/09 06:47:42;;;;;;;7.05;2.42;;;5.20;99.90;;;;;;5102819;28;20028;-80
2022/01/09 06:50:10;;;;;;;12.85;1.50;;;5.10;99.90;;;;;;5088653;28;20050;-80
2022/01/09 06:52:36;;;;;;;6.65;1.90;;;5.20;99.90;;;;;;5087217;28;20113;-80
2022/01/09 06:55:03;;;;;;;10.32;1.40;;;5.30;99.90;;;;;;5095408;28;20119;-80
2022/01/09 06:57:28;;;;;;;7.05;1.38;;;5.30;99.90;;;;;;5091440;28;20082;-82
2022/01/09 06:59:54;;;;;;;9.40;1.42;;;5.20;99.90;;;;;;5090638;28;20501;-79
2022/01/09 07:02:19;;;;;;;8.10;1.75;;;5.20;99.90;;;;;;5104500;28;20016;-79
2022/01/09 07:04:45;;;;;;;13.20;1.85;;;5.20;99.90;;;;;;5091044;28;20053;-78
2022/01/09 07:07:10;;;;;;;11.52;1.95;;;5.20;99.90;;;;;;5104940;28;20106;-81
2022/01/09 07:09:36;;;;;;;11.90;1.90;;;5.20;99.90;;;;;;5089318;28;20023;-80
2022/01/09 07:12:02;;;;;;;9.23;1.95;;;5.20;99.90;;;;;;5085646;28;20062;-81
2022/01/09 07:14:27;;;;;;;7.72;1.60;;;5.20;99.90;;;;;;5092259;28;20120;-81
2022/01/09 07:16:53;;;;;;;12.52;2.00;;;5.30;99.90;;;;;;5100973;28;20053;-80
2022/01/09 07:19:18;;;;;;;11.80;1.70;;;5.20;99.90;;;;;;5086375;28;20032;-80
2022/01/09 07:21:44;;;;;;;11.60;2.40;;;5.20;99.90;;;;;;5102586;28;20043;-84
2022/01/09 07:24:10;;;;;;;11.43;2.00;;;5.30;99.90;;;;;;5093230;28;20039;-81
2022/01/09 07:26:35;;;;;;;9.60;1.80;;;5.30;99.90;;;;;;5087169;28;20043;-78
2022/01/09 07:29:01;;;;;;;6.18;1.60;;;5.20;99.90;;;;;;5092594;28;20042;-80
2022/01/09 07:31:26;;;;;;;6.65;1.67;;;5.20;99.90;;;;;;5105342;27;20091;-79
2022/01/09 07:33:52;;;;;;;13.85;1.80;;;5.30;99.90;;;;;;5107796;28;20028;-84
2022/01/09 07:36:19;;;;;;;7.70;1.83;;;5.20;99.90;;;;;;5087853;28;20034;-83
2022/01/09 07:38:45;;;;;;;11.68;1.80;;;5.20;99.90;;;;;;5093421;28;20084;-86
2022/01/09 07:41:13;;;;;;;12.65;2.00;;;7.50;99.90;;;;;;5086548;28;20156;-80
2022/01/09 07:43:39;;;;;;;15.45;1.80;;;5.30;99.90;;;;;;5110243;27;20380;-83
2022/01/09 07:46:05;;;;;;;10.48;1.55;;;;;;;;;;5090079;28;20024;-81
2022/01/09 07:48:31;;;;;;;15.40;2.42;;;5.40;99.90;;;;;;5106315;28;20023;-82
2022/01/09 07:50:56;;;;;;;8.95;1.80;;;5.40;99.90;;;;;;5096581;28;20027;-84
2022/01/09 07:53:23;;;;;;;12.57;2.05;;;5.40;99.90;;;;;;5110432;28;20016;-79
2022/01/09 07:55:51;;;;;;;10.02;1.77;;;5.40;99.90;;;;;;5093663;28;20016;-79
2022/01/09 07:58:18;;;;;;;11.93;2.08;;;5.50;99.90;;;;;;5090538;28;20032;-87
2022/01/09 08:00:44;;;;;;;11.57;1.98;;;5.40;99.90;;;;;;5096676;28;20024;-82
2022/01/09 08:03:10;;;;;;;14.43;2.00;;;5.30;99.90;;;;;;5108344;28;20024;-81
2022/01/09 08:05:36;;;;;;;13.88;2.50;;;5.30;99.90;;;;;;5099191;28;20024;-82
2022/01/09 08:08:02;;;;;;;13.05;2.10;;;5.20;99.90;;;;;;5096793;27;20365;-81
2022/01/09 08:10:27;;;;;;;11.38;2.03;;;5.10;99.90;;;;;;5094426;28;20035;-81
2022/01/09 08:12:53;;;;;;;9.52;2.10;;;5.10;99.90;;;;;;5090042;28;20032;-80
2022/01/09 08:15:18;;;;;;;12.07;1.85;;;5.10;99.90;;;;;;5086838;28;20024;-80
2022/01/09 08:17:46;;;;;;;17.95;4.03;;;5.10;99.90;;;;;;5090203;28;20745;-80
2022/01/09 08:20:16;;;;;;;21.48;2.75;;;5.10;99.90;;;;;;5102704;28;20414;-80
2022/01/09 08:22:43;;;;;;;16.85;2.10;;;5.10;99.90;;;;;;5092579;28;20024;-77
2022/01/09 08:25:13;;;;;;;10.98;2.75;;;5.10;99.90;;;;;;5093966;28;20085;-79
2022/01/09 08:27:40;;;;;;;13.80;1.90;;;5.10;99.90;;;;;;5098021;28;20374;-80
2022/01/09 08:30:07;;;;;;;9.00;1.90;;;5.10;99.90;;;;;;5097641;28;20027;-80
2022/01/09 08:32:33;;;;;;;12.02;2.50;;;5.10;99.90;;;;;;5092548;28;20074;-80
2022/01/09 08:34:59;;;;;;;11.20;2.05;;;5.10;99.90;;;;;;5090699;28;20024;-79
2022/01/09 08:37:25;;;;;;;5.88;1.35;;;5.00;99.90;;;;;;5091524;28;20027;-79
2022/01/09 08:39:51;;;;;;;10.05;1.88;;;5.10;99.90;;;;;;5090832;28;20374;-80
2022/01/09 08:42:16;;;;;;;10.98;1.98;;;5.10;99.90;;;;;;5105938;28;20024;-79
2022/01/09 08:44:42;;;;;;;8.77;1.98;;;5.20;99.90;;;;;;5111137;28;20027;-80
2022/01/09 08:47:09;;;;;;;12.20;2.35;;;5.20;99.90;;;;;;5091543;28;20100;-79
2022/01/09 08:49:35;;;;;;;11.52;1.98;;;5.20;99.90;;;;;;5093078;28;20042;-81
2022/01/09 08:52:00;;;;;;;9.85;1.70;;;5.30;99.90;;;;;;5084153;28;20770;-81
2022/01/09 08:54:26;;;;;;;11.43;2.42;;;5.30;99.90;;;;;;5109397;28;20060;-80
2022/01/09 08:56:51;;;;;;;14.60;2.45;;;5.40;99.90;;;;;;5092602;28;20040;-81
2022/01/09 08:59:17;;;;;;;9.07;1.77;;;5.50;99.90;;;;;;5096820;28;20027;-80
2022/01/09 09:01:44;;;;;;;5.90;1.40;;;5.40;99.90;;;;;;5110131;28;20028;-82
2022/01/09 09:04:10;;;;;;;7.88;1.83;;;5.40;99.90;;;;;;5099226;28;20030;-81
2022/01/09 09:06:36;;;;;;;7.82;1.58;;;;;;;;;;5111092;28;20283;-82
2022/01/09 09:09:02;;;;;;;6.13;1.80;;;5.30;99.90;;;;;;5092053;28;20035;-81
2022/01/09 09:11:27;;;;;;;5.93;1.55;;;5.30;99.90;;;;;;5089350;28;20035;-81
2022/01/09 09:13:54;;;;;;;5.88;1.55;;;;;;;;;;5103246;28;20032;-83
2022/01/09 09:16:20;;;;;;;3.97;1.27;;;;;;;;;;5100756;28;20024;-80
2022/01/09 09:18:47;;;;;;;5.30;1.98;;;5.40;99.90;;;;;;5086014;27;20039;-82
2022/01/09 09:21:13;;;;;;;9.23;1.42;;;5.40;99.90;;;;;;5104654;28;20558;-84
2022/01/09 09:23:39;;;;;;;7.72;2.22;;;5.40;99.90;;;;;;5106778;28;20052;-79
2022/01/09 09:26:05;;;;;;;13.45;1.75;;;;;;;;;;5092863;28;20114;-82
2022/01/09 09:28:31;;;;;;;7.43;1.52;;;;;;;;;;5087876;28;20221;-81
2022/01/09 09:30:56;;;;;;;9.63;1.60;;;5.30;99.90;;;;;;5101589;27;20064;-81
2022/01/09 09:33:22;;;;;;;6.55;1.33;;;;;;;;;;5104000;28;20058;-82
2022/01/09 09:35:48;;;;;;;7.20;1.52;;;;;;;;;;5082214;28;20043;-82
2022/01/09 09:38:14;;;;;;;6.15;1.98;;;5.20;99.90;;;;;;5079918;28;20032;-82
2022/01/09 09:40:40;;;;;;;7.25;1.63;;;5.30;99.90;;;;;;5083754;28;20069;-84
2022/01/09 09:43:06;;;;;;;10.25;1.92;;;5.30;99.90;;;;;;5083201;28;20024;-81
2022/01/09 09:45:32;;;;;;;8.68;2.38;;;;;;;;;;5103069;28;20023;-83
2022/01/09 09:47:58;;;;;;;7.32;1.70;;;;;;;;;;5087057;28;20056;-80
2022/01/09 09:50:25;;;;;;;11.57;2.45;;;;;;;;;;5100493;28;20134;-82
2022/01/09 09:52:51;;;;;;;7.90;1.75;;;;;;;;;;5103123;28;20055;-83
2022/01/09 09:55:18;;;;;;;9.77;1.92;;;5.50;99.90;;;;;;5083738;28;20097;-81
2022/01/09 09:57:44;;;;;;;10.07;2.10;;;;;;;;;;5078779;28;20039;-84
2022/01/09 10:00:16;;;;;;;9.10;1.83;;;5.70;99.90;;;;;;5083056;28;20033;-82
2022/01/09 10:02:59;;;;;;;11.27;2.05;;;5.70;99.90;;;;;;5078282;28;20028;-80
2022/01/09 10:05:27;;;;;;;11.73;1.83;;;5.80;99.90;;;;;;5082706;28;20629;-82
2022/01/09 10:07:54;;;;;;;9.60;1.90;;;5.80;99.90;;;;;;5089445;28;20035;-82
2022/01/09 10:10:28;;;;;;;6.55;1.50;;;5.70;99.90;;;;;;5092545;28;20031;-84
2022/01/09 10:13:15;;;;;;;8.93;1.80;;;5.90;99.90;;;;;;5099414;28;20034;-80
2022/01/09 10:16:08;;;;;;;9.80;1.73;;;5.60;99.90;;;;;;5099850;28;20042;-82
2022/01/09 10:18:43;;;;;;;10.75;2.00;;;5.60;99.90;;;;;;5083562;28;20043;-81
2022/01/09 10:21:19;;;;;;;10.60;1.88;;;5.60;99.90;;;;;;5093850;28;20027;-82
2022/01/09 10:24:04;;;;;;;7.93;1.73;;;5.60;99.90;;;;;;5102109;28;20034;-83
2022/01/09 10:26:33;;;;;;;10.32;1.95;;;5.60;99.90;;;;;;5086510;28;20157;-80
2022/01/09 10:28:59;;;;;;;7.50;1.83;;;5.60;99.90;;;;;;5087870;28;20059;-80
2022/01/09 10:31:26;;;;;;;9.52;2.00;;;5.60;99.90;;;;;;5086147;28;20031;-79
2022/01/09 10:34:08;;;;;;;10.02;2.50;;;7.30;99.90;;;;;;5100730;28;20785;-82
2022/01/09 10:36:47;;;;;;;8.02;1.73;;;5.80;99.90;;;;;;5090937;28;20063;-78
2022/01/09 10:39:18;;;;;;;7.68;1.88;;;5.90;99.90;;;;;;5107286;28;20028;-81
2022/01/09 10:41:58;;;;;;;7.75;1.77;;;5.90;99.90;;;;;;5086970;28;20055;-81
2022/01/09 10:44:35;;;;;;;8.02;2.30;;;6.10;99.90;;;;;;5089229;28;20067;-83
2022/01/09 10:47:09;;;;;;;10.07;3.42;;;6.10;99.90;;;;;;5087015;28;20114;-77
2022/01/09 10:49:50;;;;;;;13.82;3.63;;;6.20;99.90;;;;;;5082974;28;20042;-80
2022/01/09 10:52:18;;;;;;;9.68;1.48;;;6.10;99.90;;;;;;5095771;28;20043;-82
2022/01/09 10:54:46;;;;;;;4.72;1.30;;;6.10;99.90;;;;;;5076032;28;20252;-79
2022/01/09 10:57:18;;;;;;;11.25;2.08;;;6.20;99.90;;;;;;5107509;28;20078;-82
2022/01/09 10:59:44;;;;;;;8.98;1.80;;;6.10;99.90;;;;;;5086674;28;20102;-83
2022/01/09 11:02:12;;;;;;;8.35;1.77;;;6.10;99.90;;;;;;5105334;28;20051;-80
2022/01/09 11:04:44;;;;;;;5.60;1.60;;;8.00;99.90;;;;;;5092760;28;20151;-87
2022/01/09 11:07:11;;;;;;;7.07;1.35;;;5.90;99.90;;;;;;5095161;28;20038;-84
2022/01/09 11:09:39;;;;;;;6.30;1.38;;;8.00;99.90;;;;;;5090702;28;20047;-84
2022/01/09 11:12:07;;;;;;;9.02;1.55;;;5.90;99.90;;;;;;5107769;28;20042;-83
2022/01/09 11:14:36;;;;;;;4.25;1.77;;;5.90;99.90;;;;;;5103321;28;20040;-82
2022/01/09 11:17:05;;;;;;;6.82;1.90;;;6.00;99.90;;;;;;5089864;28;20092;-85
2022/01/09 11:19:32;;;;;;;11.15;2.10;;;6.00;99.90;;;;;;5105809;27;20059;-82
2022/01/09 11:22:05;;;;;;;9.85;1.98;;;6.20;99.90;;;;;;5092076;28;20020;-83
2022/01/09 11:24:55;;;;;;;6.25;1.20;;;6.30;99.90;;;;;;5086572;28;20055;-82
2022/01/09 11:27:48;;;;;;;6.45;1.38;;;6.40;99.90;;;;;;5090630;28;20024;-81
2022/01/09 11:30:52;;;;;;;5.25;1.85;;;6.50;99.90;;;;;;5088831;27;20065;-81
2022/01/09 11:33:37;;;;;;;5.28;1.48;;;6.40;99.90;;;;;;5102161;28;20112;-82
2022/01/09 11:36:09;;;;;;;8.13;1.20;;;6.40;99.90;;;;;;5025685;28;20072;-81
2022/01/09 11:38:47;;;;;;;5.70;1.55;;;6.20;99.90;;;;;;5103416;28;20031;-81
2022/01/09 11:41:22;;;;;;;3.35;1.27;;;6.40;99.90;;;;;;5092100;28;20028;-80
2022/01/09 11:44:15;;;;;;;4.90;1.10;;;6.50;99.90;;;;;;5091276;28;20035;-81
2022/01/09 11:46:59;;;;;;;4.00;1.17;;;6.60;99.90;;;;;;5080031;28;20257;-82
2022/01/09 11:49:36;;;;;;;5.35;1.30;;;6.70;99.90;;;;;;5086703;28;20035;-82
2022/01/09 11:52:02;;;;;;;4.05;1.10;;;6.70;99.90;;;;;;5091286;28;20028;-82
2022/01/09 11:54:45;;;;;;;2.80;1.02;;;6.70;99.90;;;;;;5085211;28;20496;-81
2022/01/09 11:57:14;;;;;;;2.78;0.93;;;6.60;99.90;;;;;;5105205;27;20080;-83
2022/01/09 11:59:45;;;;;;;5.30;1.52;;;6.60;99.90;;;;;;5092166;28;20027;-87
2022/01/09 12:02:13;;;;;;;;;;;6.50;99.90;;;;;;5088537;28;20047;-88
2022/01/09 12:04:43;;;;;;;5.90;1.00;;;6.50;99.90;;;;;;5104288;28;19908;-86
2022/01/09 12:07:36;;;;;;;3.80;0.80;;;6.30;99.90;;;;;;5106553;27;20497;-84
2022/01/09 12:10:24;;;;;;;2.33;0.88;;;6.40;99.90;;;;;;5088929;28;20031;-88
2022/01/09 12:12:49;;;;;;;4.78;1.90;;;6.40;99.90;;;;;;5092470;28;20036;-86
2022/01/09 12:15:33;;;;;;;7.95;1.38;;;6.30;99.90;;;;;;5087113;28;20031;-90
2022/01/09 12:18:03;;;;;;;6.35;1.25;;;;;;;;;;5091279;28;20397;-88
2022/01/09 12:20:29;;;;;;;3.60;1.48;;;6.30;99.90;;;;;;5095585;28;20020;-86
2022/01/09 12:23:04;;;;;;;6.25;1.27;;;6.30;99.90;;;;;;5092711;28;20525;-85
2022/01/09 12:25:34;;;;;;;5.15;1.40;;;;;;;;;;5090962;28;22097;-85
2022/01/09 12:28:03;;;;;;;6.30;1.42;;;;;;;;;;5091245;28;20043;-83
2022/01/09 12:30:44;;;;;;;7.45;1.48;;;;;;;;;;5093382;28;20030;-85
2022/01/09 12:33:22;;;;;;;6.82;1.00;;;6.20;99.90;;;;;;5104278;28;20024;-85
2022/01/09 12:35:57;;;;;;;5.65;1.10;;;6.30;99.90;;;;;;5094486;28;20024;-83
2022/01/09 12:38:25;;;;;;;5.88;1.40;;;6.40;99.90;;;;;;5096645;28;20166;-86
2022/01/09 12:41:02;;;;;;;8.40;1.20;;;6.30;99.90;;;;;;5093287;28;20066;-83
2022/01/09 12:43:30;;;;;;;8.18;1.77;;;6.30;99.90;;;;;;5090749;28;20027;-87
2022/01/09 12:45:56;;;;;;;5.20;1.80;;;6.40;99.90;;;;;;5090584;28;20056;-87
2022/01/09 12:48:31;;;;;;;8.63;1.65;;;6.50;99.90;;;;;;5083959;28;20020;-84
2022/01/09 12:51:15;;;;;;;6.88;1.63;;;6.60;99.90;;;;;;5089264;28;20019;-87
2022/01/09 12:53:42;;;;;;;8.82;1.73;;;;;;;;;;5094298;28;20028;-85
2022/01/09 12:56:20;;;;;;;6.70;1.60;;;6.80;99.90;;;;;;5088868;28;20031;-87
2022/01/09 12:58:49;;;;;;;6.38;1.80;;;6.90;99.90;;;;;;5102108;28;20458;-87
2022/01/09 13:01:22;;;;;;;4.65;1.65;;;6.90;99.90;;;;;;5085900;28;20081;-84
2022/01/09 13:03:53;;;;;;;7.53;1.80;;;6.80;99.90;;;;;;5085605;28;20027;-87
2022/01/09 13:06:36;;;;;;;8.52;1.85;;;6.80;99.90;;;;;;5084363;28;20609;-89
2022/01/09 13:09:06;;;;;;;8.32;2.13;;;6.90;99.90;;;;;;5081755;28;20114;-87
2022/01/09 13:11:32;;;;;;;8.13;1.88;;;6.90;99.90;;;;;;5088129;27;20118;-88
2022/01/09 13:14:01;;;;;;;8.07;1.80;;;7.00;99.90;;;;;;5085434;28;20033;-86